^^
Saratoga-Weather Station Historical Data
Daily Summary for August 5, 2021 Units:  Both    English   Metric
Daily Weekly Monthly Yearly Custom
  High: Low: Average:
Temperature: 61.9 °F /  16.6 °C 47.1 °F /  8.4 °C 52.3 °F /  11.3 °C
Dew Point: 54.3 °F /  12.4 °C 46 °F /  7.8 °C 49.8 °F /  9.9 °C
Humidity: 97% 73% 91%
Wind Speed: 14mph /  22.5km/h - 1.4mph /  2.3km/h
Wind Gust: 14mph /  22.5km/h - -
Wind- - South
Pressure: 30 in /  1014.9 hPa 29.7 in /  1006.1 hPa -
Precipitation: 0.3 in /  7.6 mm    
Historical Graphs
 
 
Tabular Data for August 5, 2021
Time Temperature Dew Point Pressure Wind Wind Speed Wind Gust Humidity Rainfall Rate (Hourly) solar
00:04 48.6 °F /  9.2 °C 47.1 °F /  8.4 °C 30in /  1014.9hPa Calm     95% 0in /  0.0mm 0 W/m2
00:09 48.6 °F /  9.2 °C 47.1 °F /  8.4 °C 30in /  1014.9hPa Calm     95% 0in /  0.0mm 0 W/m2
00:14 48.6 °F /  9.2 °C 47.1 °F /  8.4 °C 30in /  1014.9hPa Calm     95% 0in /  0.0mm 0 W/m2
00:19 48.4 °F /  9.1 °C 46.9 °F /  8.3 °C 30in /  1014.9hPa Calm     95% 0in /  0.0mm 0 W/m2
00:24 48.4 °F /  9.1 °C 46.9 °F /  8.3 °C 30in /  1014.9hPa Calm     95% 0in /  0.0mm 0 W/m2
00:29 48.2 °F /  9 °C 46.8 °F /  8.2 °C 30in /  1014.6hPa Calm     95% 0in /  0.0mm 0 W/m2
00:35 48 °F /  8.9 °C 46.6 °F /  8.1 °C 30in /  1014.6hPa Calm     95% 0in /  0.0mm 0 W/m2
00:40 48 °F /  8.9 °C 46.6 °F /  8.1 °C 30in /  1014.6hPa Calm     95% 0in /  0.0mm 0 W/m2
00:45 47.8 °F /  8.8 °C 46.4 °F /  8 °C 30in /  1014.6hPa Calm     95% 0in /  0.0mm 0 W/m2
00:50 47.8 °F /  8.8 °C 46.4 °F /  8 °C 30in /  1014.6hPa Calm     95% 0in /  0.0mm 0 W/m2
00:55 47.7 °F /  8.7 °C 46.2 °F /  7.9 °C 30in /  1014.2hPa Calm     95% 0in /  0.0mm 0 W/m2
01:00 47.7 °F /  8.7 °C 46.2 °F /  7.9 °C 30in /  1014.2hPa Calm     95% 0in /  0.0mm 0 W/m2
01:05 47.7 °F /  8.7 °C 46.6 °F /  8.1 °C 30in /  1014.2hPa Calm     96% 0in /  0.0mm 0 W/m2
01:10 47.8 °F /  8.8 °C 46.8 °F /  8.2 °C 30in /  1014.2hPa Calm     96% 0in /  0.0mm 0 W/m2
01:15 47.8 °F /  8.8 °C 46.8 °F /  8.2 °C 30in /  1014.2hPa Calm     96% 0in /  0.0mm 0 W/m2
01:20 47.8 °F /  8.8 °C 46.4 °F /  8 °C 30in /  1014.2hPa Calm     95% 0in /  0.0mm 0 W/m2
01:25 47.8 °F /  8.8 °C 46.8 °F /  8.2 °C 30in /  1014.2hPa Calm     96% 0in /  0.0mm 0 W/m2
01:30 48 °F /  8.9 °C 46.9 °F /  8.3 °C 30in /  1014.2hPa Calm     96% 0in /  0.0mm 0 W/m2
01:35 48 °F /  8.9 °C 46.9 °F /  8.3 °C 29.9in /  1013.9hPa Calm     96% 0in /  0.0mm 0 W/m2
01:40 48 °F /  8.9 °C 46.9 °F /  8.3 °C 29.9in /  1013.9hPa Calm     96% 0in /  0.0mm 0 W/m2
01:45 48 °F /  8.9 °C 46.9 °F /  8.3 °C 29.9in /  1013.9hPa Calm     96% 0in /  0.0mm 0 W/m2
01:50 48.2 °F /  9 °C 47.1 °F /  8.4 °C 29.9in /  1013.9hPa Calm     96% 0in /  0.0mm 0 W/m2
01:55 48.2 °F /  9 °C 47.1 °F /  8.4 °C 29.9in /  1013.9hPa Calm     96% 0in /  0.0mm 0 W/m2
02:00 48.4 °F /  9.1 °C 47.3 °F /  8.5 °C 29.9in /  1013.9hPa Calm     96% 0in /  0.0mm 0 W/m2
02:05 48.4 °F /  9.1 °C 47.3 °F /  8.5 °C 29.9in /  1013.9hPa Calm     96% 0in /  0.0mm 0 W/m2
02:10 48.4 °F /  9.1 °C 47.3 °F /  8.5 °C 29.9in /  1013.9hPa Calm     96% 0in /  0.0mm 0 W/m2
02:15 48.4 °F /  9.1 °C 47.3 °F /  8.5 °C 29.9in /  1013.9hPa Calm     96% 0in /  0.0mm 0 W/m2
02:20 48.4 °F /  9.1 °C 47.3 °F /  8.5 °C 29.9in /  1013.9hPa Calm     96% 0in /  0.0mm 0 W/m2
02:25 48.4 °F /  9.1 °C 47.3 °F /  8.5 °C 29.9in /  1013.9hPa Calm     96% 0in /  0.0mm 0 W/m2
02:30 48.4 °F /  9.1 °C 47.3 °F /  8.5 °C 29.9in /  1013.9hPa Calm     96% 0in /  0.0mm 0 W/m2
02:35 48.4 °F /  9.1 °C 47.3 °F /  8.5 °C 29.9in /  1013.9hPa Calm     96% 0in /  0.0mm 0 W/m2
02:40 48.4 °F /  9.1 °C 47.3 °F /  8.5 °C 29.9in /  1013.9hPa Calm     96% 0in /  0.0mm 0 W/m2
02:45 48.4 °F /  9.1 °C 47.3 °F /  8.5 °C 29.9in /  1013.5hPa Calm     96% 0in /  0.0mm 0 W/m2
02:50 48.2 °F /  9 °C 47.1 °F /  8.4 °C 29.9in /  1013.9hPa Calm     96% 0in /  0.0mm 0 W/m2
02:55 48 °F /  8.9 °C 46.9 °F /  8.3 °C 29.9in /  1013.9hPa Calm     96% 0in /  0.0mm 0 W/m2
03:00 48 °F /  8.9 °C 46.9 °F /  8.3 °C 29.9in /  1013.5hPa Calm     96% 0in /  0.0mm 0 W/m2
03:05 48 °F /  8.9 °C 46.9 °F /  8.3 °C 29.9in /  1013.5hPa Calm     96% 0in /  0.0mm 0 W/m2
03:10 48 °F /  8.9 °C 46.9 °F /  8.3 °C 29.9in /  1013.5hPa Calm     96% 0in /  0.0mm 0 W/m2
03:15 47.8 °F /  8.8 °C 46.8 °F /  8.2 °C 29.9in /  1013.5hPa Calm     96% 0in /  0.0mm 0 W/m2
03:20 47.8 °F /  8.8 °C 46.8 °F /  8.2 °C 29.9in /  1013.2hPa Calm     96% 0in /  0.0mm 0 W/m2
03:25 47.8 °F /  8.8 °C 46.8 °F /  8.2 °C 29.9in /  1013.2hPa Calm     96% 0in /  0.0mm 0 W/m2
03:30 47.8 °F /  8.8 °C 46.8 °F /  8.2 °C 29.9in /  1013.2hPa Calm     96% 0in /  0.0mm 0 W/m2
03:35 47.8 °F /  8.8 °C 46.8 °F /  8.2 °C 29.9in /  1013.2hPa Calm     96% 0in /  0.0mm 0 W/m2
03:40 47.8 °F /  8.8 °C 46.8 °F /  8.2 °C 29.9in /  1012.9hPa Calm     96% 0in /  0.0mm 0 W/m2
03:45 47.8 °F /  8.8 °C 46.8 °F /  8.2 °C 29.9in /  1012.9hPa Calm     96% 0in /  0.0mm 0 W/m2
03:50 47.8 °F /  8.8 °C 46.8 °F /  8.2 °C 29.9in /  1012.9hPa Calm     96% 0in /  0.0mm 0 W/m2
03:55 47.7 °F /  8.7 °C 46.6 °F /  8.1 °C 29.9in /  1012.9hPa Calm     96% 0in /  0.0mm 0 W/m2
04:00 47.7 °F /  8.7 °C 46.6 °F /  8.1 °C 29.9in /  1012.5hPa Calm     96% 0in /  0.0mm 0 W/m2
04:05 47.7 °F /  8.7 °C 46.6 °F /  8.1 °C 29.9in /  1012.5hPa Calm     96% 0in /  0.0mm 0 W/m2
04:10 47.7 °F /  8.7 °C 46.6 °F /  8.1 °C 29.9in /  1012.5hPa Calm     96% 0in /  0.0mm 0 W/m2
04:15 47.5 °F /  8.6 °C 46.4 °F /  8 °C 29.9in /  1012.5hPa Calm     96% 0in /  0.0mm 0 W/m2
04:20 47.5 °F /  8.6 °C 46.4 °F /  8 °C 29.9in /  1012.5hPa Calm     96% 0in /  0.0mm 0 W/m2
04:25 47.5 °F /  8.6 °C 46.4 °F /  8 °C 29.9in /  1012.5hPa Calm     96% 0in /  0.0mm 0 W/m2
04:30 47.5 °F /  8.6 °C 46.4 °F /  8 °C 29.9in /  1012.2hPa Calm     96% 0in /  0.0mm 0 W/m2
04:35 47.5 °F /  8.6 °C 46.4 °F /  8 °C 29.9in /  1012.2hPa Calm     96% 0in /  0.0mm 0 W/m2
04:40 47.5 °F /  8.6 °C 46.4 °F /  8 °C 29.9in /  1012.2hPa Calm     96% 0in /  0.0mm 0 W/m2
04:45 47.5 °F /  8.6 °C 46.4 °F /  8 °C 29.9in /  1012.2hPa Calm     96% 0in /  0.0mm 0 W/m2
04:50 47.3 °F /  8.5 °C 46.2 °F /  7.9 °C 29.9in /  1011.9hPa Calm     96% 0in /  0.0mm 0 W/m2
04:55 47.5 °F /  8.6 °C 46.4 °F /  8 °C 29.9in /  1011.9hPa Calm     96% 0in /  0.0mm 0 W/m2
05:00 47.3 °F /  8.5 °C 46.2 °F /  7.9 °C 29.9in /  1011.9hPa Calm     96% 0in /  0.0mm 0 W/m2
05:05 47.1 °F /  8.4 °C 46 °F /  7.8 °C 29.9in /  1011.9hPa Calm     96% 0in /  0.0mm 0 W/m2
05:10 47.1 °F /  8.4 °C 46 °F /  7.8 °C 29.9in /  1011.5hPa Calm     96% 0in /  0.0mm 0 W/m2
05:15 47.3 °F /  8.5 °C 46.2 °F /  7.9 °C 29.9in /  1011.5hPa Calm     96% 0in /  0.0mm 0 W/m2
05:20 47.5 °F /  8.6 °C 46.4 °F /  8 °C 29.9in /  1011.5hPa Calm     96% 0in /  0.0mm 0 W/m2
05:25 47.5 °F /  8.6 °C 46.4 °F /  8 °C 29.9in /  1011.5hPa Calm     96% 0in /  0.0mm 0 W/m2
05:30 47.7 °F /  8.7 °C 46.9 °F /  8.3 °C 29.9in /  1011.2hPa Calm     97% 0in /  0.0mm 0 W/m2
05:35 47.7 °F /  8.7 °C 46.9 °F /  8.3 °C 29.9in /  1011.2hPa Calm     97% 0in /  0.0mm 0 W/m2
05:40 47.8 °F /  8.8 °C 46.9 °F /  8.3 °C 29.9in /  1011.2hPa Calm     97% 0in /  0.0mm 0 W/m2
05:45 47.8 °F /  8.8 °C 46.9 °F /  8.3 °C 29.9in /  1011.2hPa Calm     97% 0in /  0.0mm 0 W/m2
05:50 47.8 °F /  8.8 °C 46.8 °F /  8.2 °C 29.9in /  1011.2hPa Calm     96% 0in /  0.0mm 0 W/m2
05:55 47.8 °F /  8.8 °C 46.9 °F /  8.3 °C 29.9in /  1010.8hPa Calm     97% 0in /  0.0mm 0 W/m2
06:00 47.8 °F /  8.8 °C 46.9 °F /  8.3 °C 29.9in /  1011.2hPa Calm     97% 0in /  0.0mm 0 W/m2
06:06 47.7 °F /  8.7 °C 46.6 °F /  8.1 °C 29.9in /  1011.2hPa Calm     96% 0in /  0.0mm 0 W/m2
06:11 47.7 °F /  8.7 °C 46.6 °F /  8.1 °C 29.9in /  1010.8hPa Calm     96% 0in /  0.0mm 0 W/m2
06:16 47.7 °F /  8.7 °C 46.9 °F /  8.3 °C 29.9in /  1010.8hPa Calm     97% 0in /  0.0mm 0 W/m2
06:21 47.7 °F /  8.7 °C 46.9 °F /  8.3 °C 29.9in /  1010.8hPa Calm     97% 0in /  0.0mm 0 W/m2
06:26 47.7 °F /  8.7 °C 46.9 °F /  8.3 °C 29.9in /  1010.8hPa Calm     97% 0in /  0.0mm 0 W/m2
06:31 47.7 °F /  8.7 °C 46.9 °F /  8.3 °C 29.9in /  1010.8hPa Calm     97% 0in /  0.0mm 0 W/m2
06:36 47.5 °F /  8.6 °C 46.4 °F /  8 °C 29.9in /  1010.8hPa Calm     96% 0in /  0.0mm 0 W/m2
06:41 47.5 °F /  8.6 °C 46.4 °F /  8 °C 29.9in /  1010.8hPa Calm     96% 0in /  0.0mm 0 W/m2
06:46 47.5 °F /  8.6 °C 46.4 °F /  8 °C 29.9in /  1010.8hPa Calm     96% 0in /  0.0mm 0 W/m2
06:51 47.5 °F /  8.6 °C 46.4 °F /  8 °C 29.8in /  1010.5hPa Calm     96% 0in /  0.0mm 0 W/m2
06:56 47.5 °F /  8.6 °C 46.4 °F /  8 °C 29.8in /  1010.5hPa Calm     96% 0in /  0.0mm 0 W/m2
07:01 47.5 °F /  8.6 °C 46.4 °F /  8 °C 29.8in /  1010.5hPa Calm     96% 0in /  0.0mm 0 W/m2
07:06 47.5 °F /  8.6 °C 46.4 °F /  8 °C 29.8in /  1010.5hPa Calm     96% 0in /  0.0mm 0 W/m2
07:11 47.5 °F /  8.6 °C 46.8 °F /  8.2 °C 29.8in /  1010.5hPa Calm   2mph /  3.2km/h 97% 0in /  0.0mm 0 W/m2
07:16 47.7 °F /  8.7 °C 46.9 °F /  8.3 °C 29.8in /  1010.5hPa Calm   1mph /  1.6km/h 97% 0in /  0.0mm 0 W/m2
07:21 47.7 °F /  8.7 °C 46.9 °F /  8.3 °C 29.8in /  1010.2hPa Calm     97% 0in /  0.0mm 0 W/m2
07:26 47.7 °F /  8.7 °C 46.9 °F /  8.3 °C 29.8in /  1010.2hPa Calm     97% 0in /  0.0mm 0 W/m2
07:31 47.7 °F /  8.7 °C 46.9 °F /  8.3 °C 29.8in /  1010.2hPa Calm     97% 0in /  0.0mm 0 W/m2
07:36 47.7 °F /  8.7 °C 46.9 °F /  8.3 °C 29.8in /  1010.2hPa Calm     97% 0in /  0.0mm 0 W/m2
07:41 47.7 °F /  8.7 °C 46.9 °F /  8.3 °C 29.8in /  1010.2hPa Calm     97% 0in /  0.0mm 0 W/m2
07:46 47.8 °F /  8.8 °C 46.9 °F /  8.3 °C 29.8in /  1010.2hPa Calm   1mph /  1.6km/h 97% 0in /  0.0mm 0 W/m2
07:51 47.8 °F /  8.8 °C 46.9 °F /  8.3 °C 29.8in /  1010.2hPa Calm     97% 0in /  0.0mm 5 W/m2
07:56 47.8 °F /  8.8 °C 46.9 °F /  8.3 °C 29.8in /  1010.2hPa Calm   1mph /  1.6km/h 97% 0in /  0.0mm 7 W/m2
08:01 47.8 °F /  8.8 °C 46.9 °F /  8.3 °C 29.8in /  1009.8hPa Calm     97% 0in /  0.0mm 9 W/m2
08:06 48 °F /  8.9 °C 47.1 °F /  8.4 °C 29.8in /  1009.8hPa Calm   2mph /  3.2km/h 97% 0in /  0.0mm 11 W/m2
08:11 48 °F /  8.9 °C 47.1 °F /  8.4 °C 29.8in /  1009.8hPa Calm     97% 0in /  0.0mm 12 W/m2
08:16 48.2 °F /  9 °C 47.3 °F /  8.5 °C 29.8in /  1009.8hPa Calm   2mph /  3.2km/h 97% 0in /  0.0mm 18 W/m2
08:21 48.2 °F /  9 °C 47.3 °F /  8.5 °C 29.8in /  1009.8hPa Calm     97% 0in /  0.0mm 19 W/m2
08:26 48.2 °F /  9 °C 47.3 °F /  8.5 °C 29.8in /  1010.2hPa Calm     97% 0in /  0.0mm 14 W/m2
08:31 48.2 °F /  9 °C 47.3 °F /  8.5 °C 29.8in /  1009.8hPa Calm     97% 0in /  0.0mm 14 W/m2
08:36 48 °F /  8.9 °C 47.1 °F /  8.4 °C 29.8in /  1009.8hPa Calm     97% 0in /  0.0mm 16 W/m2
08:41 48 °F /  8.9 °C 47.1 °F /  8.4 °C 29.8in /  1010.2hPa Calm     97% 0in /  0.0mm 21 W/m2
08:46 48 °F /  8.9 °C 47.1 °F /  8.4 °C 29.8in /  1010.2hPa Calm     97% 0in /  0.0mm 23 W/m2
08:51 47.8 °F /  8.8 °C 46.9 °F /  8.3 °C 29.8in /  1010.2hPa Calm     97% 0in /  0.0mm 26 W/m2
08:56 47.8 °F /  8.8 °C 46.9 °F /  8.3 °C 29.8in /  1009.8hPa Calm     97% 0in /  0.0mm 30 W/m2
09:01 47.8 °F /  8.8 °C 46.9 °F /  8.3 °C 29.8in /  1009.8hPa Calm     97% 0in /  0.0mm 25 W/m2
09:06 47.8 °F /  8.8 °C 46.9 °F /  8.3 °C 29.8in /  1009.8hPa Calm     97% 0in /  0.0mm 32 W/m2
09:11 47.8 °F /  8.8 °C 46.9 °F /  8.3 °C 29.8in /  1009.8hPa Calm     97% 0in /  0.0mm 46 W/m2
09:16 47.8 °F /  8.8 °C 46.9 °F /  8.3 °C 29.8in /  1009.8hPa Calm     97% 0in /  0.0mm 46 W/m2
09:21 48 °F /  8.9 °C 47.1 °F /  8.4 °C 29.8in /  1009.8hPa Calm     97% 0in /  0.0mm 176 W/m2
09:26 48.4 °F /  9.1 °C 47.5 °F /  8.6 °C 29.8in /  1009.8hPa Calm   1mph /  1.6km/h 97% 0in /  0.0mm 199 W/m2
09:31 48.7 °F /  9.3 °C 47.8 °F /  8.8 °C 29.8in /  1009.5hPa Calm     97% 0in /  0.0mm 230 W/m2
09:36 49.1 °F /  9.5 °C 48.2 °F /  9 °C 29.8in /  1009.5hPa Calm   1mph /  1.6km/h 97% 0in /  0.0mm 232 W/m2
09:41 49.3 °F /  9.6 °C 48.4 °F /  9.1 °C 29.8in /  1009.1hPa Calm     97% 0in /  0.0mm 232 W/m2
09:46 49.6 °F /  9.8 °C 48.7 °F /  9.3 °C 29.8in /  1009.1hPa East 1mph /  1.6km/h 1mph /  1.6km/h 97% 0in /  0.0mm 156 W/m2
09:51 50 °F /  10 °C 49.1 °F /  9.5 °C 29.8in /  1009.1hPa Calm     97% 0in /  0.0mm 223 W/m2
09:56 50.4 °F /  10.2 °C 49.5 °F /  9.7 °C 29.8in /  1009.1hPa Calm   1mph /  1.6km/h 97% 0in /  0.0mm 265 W/m2
10:01 50.7 °F /  10.4 °C 49.8 °F /  9.9 °C 29.8in /  1009.1hPa Calm   2mph /  3.2km/h 97% 0in /  0.0mm 265 W/m2
10:06 51.3 °F /  10.7 °C 50.4 °F /  10.2 °C 29.8in /  1009.1hPa Calm     97% 0in /  0.0mm 279 W/m2
10:11 51.6 °F /  10.9 °C 50.7 °F /  10.4 °C 29.8in /  1009.1hPa North 2mph /  3.2km/h 2mph /  3.2km/h 97% 0in /  0.0mm 53 W/m2
10:16 52 °F /  11.1 °C 51.1 °F /  10.6 °C 29.8in /  1009.1hPa ENE 0.9mph /  1.4km/h 4mph /  6.4km/h 97% 0in /  0.0mm 320 W/m2
10:21 52.5 °F /  11.4 °C 51.6 °F /  10.9 °C 29.8in /  1009.1hPa NE 0.9mph /  1.4km/h 4mph /  6.4km/h 97% 0in /  0.0mm 63 W/m2
10:26 53.1 °F /  11.7 °C 52.2 °F /  11.2 °C 29.8in /  1009.1hPa North 0.9mph /  1.4km/h 2mph /  3.2km/h 97% 0in /  0.0mm 327 W/m2
10:31 53.8 °F /  12.1 °C 52.9 °F /  11.6 °C 29.8in /  1009.1hPa East 2mph /  3.2km/h 7mph /  11.3km/h 97% 0in /  0.0mm 255 W/m2
10:36 54.3 °F /  12.4 °C 52.9 °F /  11.6 °C 29.8in /  1008.8hPa North 2mph /  3.2km/h 3mph /  4.8km/h 95% 0in /  0.0mm 364 W/m2
10:41 55 °F /  12.8 °C 53.1 °F /  11.7 °C 29.8in /  1008.8hPa East 2.9mph /  4.7km/h 7mph /  11.3km/h 93% 0in /  0.0mm 369 W/m2
10:46 55.6 °F /  13.1 °C 53.1 °F /  11.7 °C 29.8in /  1008.8hPa Calm   2mph /  3.2km/h 91% 0in /  0.0mm 376 W/m2
10:51 56.1 °F /  13.4 °C 53.2 °F /  11.8 °C 29.8in /  1008.8hPa NE 2.9mph /  4.7km/h 4mph /  6.4km/h 90% 0in /  0.0mm 406 W/m2
10:56 56.5 °F /  13.6 °C 52.9 °F /  11.6 °C 29.8in /  1008.5hPa NNE 0.9mph /  1.4km/h 2mph /  3.2km/h 88% 0in /  0.0mm 432 W/m2
11:01 56.7 °F /  13.7 °C 52.5 °F /  11.4 °C 29.8in /  1008.5hPa ENE 0.9mph /  1.4km/h 4mph /  6.4km/h 86% 0in /  0.0mm 388 W/m2
11:06 57 °F /  13.9 °C 52.9 °F /  11.6 °C 29.8in /  1008.5hPa WNW 0.9mph /  1.4km/h 2mph /  3.2km/h 86% 0in /  0.0mm 424 W/m2
11:11 57.6 °F /  14.2 °C 53.1 °F /  11.7 °C 29.8in /  1008.5hPa East 4mph /  6.4km/h 6mph /  9.7km/h 85% 0in /  0.0mm 438 W/m2
11:16 57.9 °F /  14.4 °C 52.7 °F /  11.5 °C 29.8in /  1008.5hPa ENE 4mph /  6.4km/h 8mph /  12.9km/h 83% 0in /  0.0mm 461 W/m2
11:21 58.3 °F /  14.6 °C 52.9 °F /  11.6 °C 29.8in /  1008.5hPa North 0.9mph /  1.4km/h 4mph /  6.4km/h 82% 0in /  0.0mm 434 W/m2
11:26 58.5 °F /  14.7 °C 53.1 °F /  11.7 °C 29.8in /  1008.5hPa ESE 4mph /  6.4km/h 5mph /  8km/h 82% 0in /  0.0mm 547 W/m2
11:31 58.6 °F /  14.8 °C 53.2 °F /  11.8 °C 29.8in /  1008.1hPa NE 2.9mph /  4.7km/h 4mph /  6.4km/h 82% 0in /  0.0mm 100 W/m2
11:36 58.8 °F /  14.9 °C 53.1 °F /  11.7 °C 29.8in /  1008.1hPa East 4mph /  6.4km/h 4mph /  6.4km/h 81% 0in /  0.0mm 162 W/m2
11:41 58.8 °F /  14.9 °C 53.1 °F /  11.7 °C 29.8in /  1008.1hPa North 0.9mph /  1.4km/h 2mph /  3.2km/h 81% 0in /  0.0mm 431 W/m2
11:46 59.2 °F /  15.1 °C 53.4 °F /  11.9 °C 29.8in /  1008.1hPa NE 4.9mph /  7.9km/h 6mph /  9.7km/h 81% 0in /  0.0mm 520 W/m2
11:51 59.4 °F /  15.2 °C 53.2 °F /  11.8 °C 29.8in /  1007.8hPa East 6mph /  9.7km/h 6mph /  9.7km/h 80% 0in /  0.0mm 97 W/m2
11:57 59.4 °F /  15.2 °C 53.2 °F /  11.8 °C 29.8in /  1007.8hPa ENE 2.9mph /  4.7km/h 5mph /  8km/h 80% 0in /  0.0mm 373 W/m2
12:02 59.4 °F /  15.2 °C 53.6 °F /  12 °C 29.8in /  1007.8hPa WNW 4mph /  6.4km/h 4mph /  6.4km/h 81% 0in /  0.0mm 399 W/m2
12:07 59.4 °F /  15.2 °C 53.6 °F /  12 °C 29.8in /  1007.5hPa East 4mph /  6.4km/h 4mph /  6.4km/h 81% 0in /  0.0mm 244 W/m2
12:12 59.7 °F /  15.4 °C 53.6 °F /  12 °C 29.8in /  1007.5hPa NW 2.9mph /  4.7km/h 5mph /  8km/h 80% 0in /  0.0mm 174 W/m2
12:17 60.3 °F /  15.7 °C 54.1 °F /  12.3 °C 29.8in /  1007.5hPa ESE 2.9mph /  4.7km/h 9mph /  14.5km/h 80% 0in /  0.0mm 366 W/m2
12:22 60.4 °F /  15.8 °C 54.3 °F /  12.4 °C 29.8in /  1007.5hPa NE 2mph /  3.2km/h 5mph /  8km/h 80% 0in /  0.0mm 192 W/m2
12:27 61 °F /  16.1 °C 54.1 °F /  12.3 °C 29.8in /  1007.5hPa SE 8.9mph /  14.3km/h 9mph /  14.5km/h 78% 0in /  0.0mm 214 W/m2
12:32 61.2 °F /  16.2 °C 54 °F /  12.2 °C 29.8in /  1007.5hPa NE 0.9mph /  1.4km/h 8mph /  12.9km/h 77% 0in /  0.0mm 446 W/m2
12:37 61.3 °F /  16.3 °C 53.8 °F /  12.1 °C 29.8in /  1007.5hPa ENE 4mph /  6.4km/h 7mph /  11.3km/h 76% 0in /  0.0mm 214 W/m2
12:42 61.5 °F /  16.4 °C 53.6 °F /  12 °C 29.8in /  1007.5hPa NW 0.9mph /  1.4km/h 7mph /  11.3km/h 75% 0in /  0.0mm 638 W/m2
12:47 61.7 °F /  16.5 °C 53.8 °F /  12.1 °C 29.8in /  1007.5hPa NE 4.9mph /  7.9km/h 6mph /  9.7km/h 75% 0in /  0.0mm 197 W/m2
12:52 61.5 °F /  16.4 °C 53.2 °F /  11.8 °C 29.8in /  1007.5hPa North 0.9mph /  1.4km/h 6mph /  9.7km/h 74% 0in /  0.0mm 188 W/m2
12:57 61.9 °F /  16.6 °C 53.4 °F /  11.9 °C 29.8in /  1007.5hPa East 10.1mph /  16.3km/h 11mph /  17.7km/h 74% 0in /  0.0mm 287 W/m2
13:02 61.9 °F /  16.6 °C 53.1 °F /  11.7 °C 29.8in /  1007.5hPa ENE 2.9mph /  4.7km/h 8mph /  12.9km/h 73% 0in /  0.0mm 209 W/m2
13:07 61.7 °F /  16.5 °C 52.9 °F /  11.6 °C 29.7in /  1007.1hPa NNW 14mph /  22.5km/h 14mph /  22.5km/h 73% 0in /  0.0mm 190 W/m2
13:12 61.7 °F /  16.5 °C 53.2 °F /  11.8 °C 29.8in /  1007.5hPa NE 0.9mph /  1.4km/h 3mph /  4.8km/h 74% 0in /  0.0mm 155 W/m2
13:17 61.5 °F /  16.4 °C 52.7 °F /  11.5 °C 29.8in /  1007.5hPa NE 11mph /  17.7km/h 11mph /  17.7km/h 73% 0in /  0.0mm 220 W/m2
13:22 61.5 °F /  16.4 °C 53.2 °F /  11.8 °C 29.7in /  1007.1hPa East 2mph /  3.2km/h 2mph /  3.2km/h 74% 0in /  0.0mm 211 W/m2
13:27 61.5 °F /  16.4 °C 53.2 °F /  11.8 °C 29.7in /  1007.1hPa ENE 2mph /  3.2km/h 5mph /  8km/h 74% 0in /  0.0mm 232 W/m2
13:32 61.5 °F /  16.4 °C 53.2 °F /  11.8 °C 29.7in /  1007.1hPa ENE 4.9mph /  7.9km/h 5mph /  8km/h 74% 0in /  0.0mm 146 W/m2
13:37 61.3 °F /  16.3 °C 53.1 °F /  11.7 °C 29.7in /  1007.1hPa ENE 4mph /  6.4km/h 5mph /  8km/h 74% 0in /  0.0mm 113 W/m2
13:42 61.3 °F /  16.3 °C 53.4 °F /  11.9 °C 29.7in /  1006.8hPa ENE 0.9mph /  1.4km/h 6mph /  9.7km/h 75% 0in /  0.0mm 192 W/m2
13:47 61.3 °F /  16.3 °C 53.8 °F /  12.1 °C 29.7in /  1006.8hPa North 2mph /  3.2km/h 6mph /  9.7km/h 76% 0in /  0.0mm 216 W/m2
13:52 61.5 °F /  16.4 °C 53.2 °F /  11.8 °C 29.7in /  1006.8hPa WNW 6.9mph /  11.1km/h 7mph /  11.3km/h 74% 0in /  0.0mm 104 W/m2
13:57 61.5 °F /  16.4 °C 53.2 °F /  11.8 °C 29.7in /  1006.4hPa ENE 2.9mph /  4.7km/h 5mph /  8km/h 74% 0in /  0.0mm 97 W/m2
14:02 61.3 °F /  16.3 °C 53.1 °F /  11.7 °C 29.7in /  1006.4hPa NNW 4.9mph /  7.9km/h 5mph /  8km/h 74% 0in /  0.0mm 72 W/m2
14:07 61.2 °F /  16.2 °C 53.2 °F /  11.8 °C 29.7in /  1006.4hPa North 2mph /  3.2km/h 6mph /  9.7km/h 75% 0in /  0.0mm 56 W/m2
14:12 61 °F /  16.1 °C 53.1 °F /  11.7 °C 29.7in /  1006.4hPa Calm   6mph /  9.7km/h 75% 0in /  0.0mm 46 W/m2
14:17 60.8 °F /  16 °C 52.9 °F /  11.6 °C 29.7in /  1006.4hPa East 2.9mph /  4.7km/h 4mph /  6.4km/h 75% 0in /  0.0mm 65 W/m2
14:22 60.8 °F /  16 °C 53.6 °F /  12 °C 29.7in /  1006.4hPa NE 0.9mph /  1.4km/h 4mph /  6.4km/h 77% 0in /  0.0mm 114 W/m2
14:27 60.6 °F /  15.9 °C 53.4 °F /  11.9 °C 29.7in /  1006.4hPa West 2.9mph /  4.7km/h 4mph /  6.4km/h 77% 0in /  0.0mm 77 W/m2
14:32 60.4 °F /  15.8 °C 54 °F /  12.2 °C 29.7in /  1006.4hPa SE 2.9mph /  4.7km/h 3mph /  4.8km/h 79% 0in /  0.0mm 56 W/m2
14:37 60.3 °F /  15.7 °C 53.8 °F /  12.1 °C 29.7in /  1006.4hPa ENE 8mph /  12.9km/h 8mph /  12.9km/h 79% 0in /  0.0mm 102 W/m2
14:42 60.1 °F /  15.6 °C 54.3 °F /  12.4 °C 29.7in /  1006.4hPa NNE 2.9mph /  4.7km/h 3mph /  4.8km/h 81% 0in /  0.0mm 88 W/m2
14:47 59.7 °F /  15.4 °C 54.1 °F /  12.3 °C 29.7in /  1006.4hPa ENE 2mph /  3.2km/h 7mph /  11.3km/h 82% 0in /  0.0mm 65 W/m2
14:52 59.4 °F /  15.2 °C 54.1 °F /  12.3 °C 29.7in /  1006.1hPa NW 4mph /  6.4km/h 8mph /  12.9km/h 83% 0.01in /  0.2mm 93 W/m2
14:57 59.2 °F /  15.1 °C 54 °F /  12.2 °C 29.7in /  1006.4hPa NW 2mph /  3.2km/h 4mph /  6.4km/h 83% 0.01in /  0.2mm 83 W/m2
15:02 58.8 °F /  14.9 °C 54 °F /  12.2 °C 29.7in /  1006.4hPa NW 8mph /  12.9km/h 8mph /  12.9km/h 84% 0.02in /  0.5mm 84 W/m2
15:07 58.6 °F /  14.8 °C 54.1 °F /  12.3 °C 29.7in /  1006.4hPa ENE 0.9mph /  1.4km/h 6mph /  9.7km/h 85% 0.02in /  0.5mm 58 W/m2
15:12 58.5 °F /  14.7 °C 54 °F /  12.2 °C 29.7in /  1006.4hPa ENE 2.9mph /  4.7km/h 5mph /  8km/h 85% 0.02in /  0.5mm 42 W/m2
15:17 58.3 °F /  14.6 °C 54.1 °F /  12.3 °C 29.7in /  1006.4hPa NNE 0.9mph /  1.4km/h 6mph /  9.7km/h 86% 0.03in /  0.8mm 49 W/m2
15:22 57.9 °F /  14.4 °C 54.1 °F /  12.3 °C 29.7in /  1006.4hPa NE 2mph /  3.2km/h 5mph /  8km/h 87% 0.04in /  1.0mm 63 W/m2
15:27 57.7 °F /  14.3 °C 54.1 °F /  12.3 °C 29.7in /  1006.4hPa ENE 2.9mph /  4.7km/h 4mph /  6.4km/h 88% 0.06in /  1.5mm 67 W/m2
15:32 57.6 °F /  14.2 °C 54 °F /  12.2 °C 29.7in /  1006.4hPa NNE 2mph /  3.2km/h 5mph /  8km/h 88% 0.07in /  1.8mm 72 W/m2
15:37 57.4 °F /  14.1 °C 54.1 °F /  12.3 °C 29.7in /  1006.1hPa NNW 2mph /  3.2km/h 4mph /  6.4km/h 89% 0.08in /  2.0mm 60 W/m2
15:42 57 °F /  13.9 °C 54.1 °F /  12.3 °C 29.7in /  1006.1hPa Calm   2mph /  3.2km/h 90% 0.09in /  2.3mm 42 W/m2
15:47 57 °F /  13.9 °C 54.1 °F /  12.3 °C 29.7in /  1006.1hPa WSW 0.9mph /  1.4km/h 2mph /  3.2km/h 90% 0.09in /  2.3mm 23 W/m2
15:52 56.8 °F /  13.8 °C 54 °F /  12.2 °C 29.7in /  1006.4hPa NE 2mph /  3.2km/h 3mph /  4.8km/h 90% 0.09in /  2.3mm 28 W/m2
15:57 56.8 °F /  13.8 °C 54.3 °F /  12.4 °C 29.7in /  1006.4hPa NNE 0.9mph /  1.4km/h 3mph /  4.8km/h 91% 0.1in /  2.5mm 56 W/m2
16:02 56.7 °F /  13.7 °C 54.1 °F /  12.3 °C 29.7in /  1006.4hPa NE 2.9mph /  4.7km/h 5mph /  8km/h 91% 0.1in /  2.5mm 42 W/m2
16:07 56.7 °F /  13.7 °C 54.1 °F /  12.3 °C 29.7in /  1006.1hPa NE 2mph /  3.2km/h 7mph /  11.3km/h 91% 0.1in /  2.5mm 54 W/m2
16:12 56.5 °F /  13.6 °C 54 °F /  12.2 °C 29.7in /  1006.4hPa NW 0.9mph /  1.4km/h 4mph /  6.4km/h 91% 0.11in /  2.8mm 86 W/m2
16:17 56.1 °F /  13.4 °C 53.6 °F /  12 °C 29.7in /  1006.1hPa NNE 2.9mph /  4.7km/h 4mph /  6.4km/h 91% 0.11in /  2.8mm 62 W/m2
16:22 56.1 °F /  13.4 °C 53.6 °F /  12 °C 29.7in /  1006.1hPa ENE 0.9mph /  1.4km/h 4mph /  6.4km/h 91% 0.1in /  2.5mm 93 W/m2
16:27 56.1 °F /  13.4 °C 53.8 °F /  12.1 °C 29.7in /  1006.4hPa NW 2mph /  3.2km/h 4mph /  6.4km/h 92% 0.09in /  2.3mm 97 W/m2
16:32 55.9 °F /  13.3 °C 53.6 °F /  12 °C 29.7in /  1006.1hPa East 2.9mph /  4.7km/h 3mph /  4.8km/h 92% 0.08in /  2.0mm 91 W/m2
16:37 55.9 °F /  13.3 °C 53.6 °F /  12 °C 29.7in /  1006.4hPa ENE 0.9mph /  1.4km/h 5mph /  8km/h 92% 0.08in /  2.0mm 47 W/m2
16:42 55.9 °F /  13.3 °C 53.6 °F /  12 °C 29.7in /  1006.4hPa NE 2mph /  3.2km/h 6mph /  9.7km/h 92% 0.07in /  1.8mm 46 W/m2
16:47 55.9 °F /  13.3 °C 53.6 °F /  12 °C 29.7in /  1006.4hPa NE 2mph /  3.2km/h 4mph /  6.4km/h 92% 0.07in /  1.8mm 33 W/m2
16:52 55.9 °F /  13.3 °C 53.6 °F /  12 °C 29.7in /  1006.1hPa NE 0.9mph /  1.4km/h 6mph /  9.7km/h 92% 0.06in /  1.5mm 47 W/m2
16:57 55.9 °F /  13.3 °C 53.6 °F /  12 °C 29.7in /  1006.1hPa North 2.9mph /  4.7km/h 3mph /  4.8km/h 92% 0.06in /  1.5mm 40 W/m2
17:02 55.9 °F /  13.3 °C 54 °F /  12.2 °C 29.7in /  1006.4hPa NNE 2mph /  3.2km/h 2mph /  3.2km/h 93% 0.06in /  1.5mm 35 W/m2
17:07 55.8 °F /  13.2 °C 53.8 °F /  12.1 °C 29.7in /  1006.4hPa ENE 2.9mph /  4.7km/h 4mph /  6.4km/h 93% 0.06in /  1.5mm 28 W/m2
17:12 55.8 °F /  13.2 °C 53.8 °F /  12.1 °C 29.7in /  1006.4hPa ENE 4.9mph /  7.9km/h 5mph /  8km/h 93% 0.07in /  1.8mm 37 W/m2
17:17 55.8 °F /  13.2 °C 53.8 °F /  12.1 °C 29.7in /  1006.4hPa NE 4.9mph /  7.9km/h 6mph /  9.7km/h 93% 0.07in /  1.8mm 60 W/m2
17:22 55.8 °F /  13.2 °C 53.8 °F /  12.1 °C 29.7in /  1006.1hPa Calm   4mph /  6.4km/h 93% 0.08in /  2.0mm 56 W/m2
17:27 55.8 °F /  13.2 °C 53.8 °F /  12.1 °C 29.7in /  1006.1hPa NNW 2mph /  3.2km/h 5mph /  8km/h 93% 0.08in /  2.0mm 44 W/m2
17:32 55.8 °F /  13.2 °C 54.1 °F /  12.3 °C 29.7in /  1006.4hPa North 2mph /  3.2km/h 4mph /  6.4km/h 94% 0.09in /  2.3mm 33 W/m2
17:37 55.8 °F /  13.2 °C 54.1 °F /  12.3 °C 29.7in /  1006.4hPa NNW 4mph /  6.4km/h 4mph /  6.4km/h 94% 0.09in /  2.3mm 12 W/m2
17:42 55.8 °F /  13.2 °C 53.8 °F /  12.1 °C 29.7in /  1006.8hPa ENE 0.9mph /  1.4km/h 4mph /  6.4km/h 93% 0.1in /  2.5mm 12 W/m2
17:48 55.8 °F /  13.2 °C 53.8 °F /  12.1 °C 29.7in /  1006.8hPa West 2.9mph /  4.7km/h 5mph /  8km/h 93% 0.09in /  2.3mm 47 W/m2
17:53 55.6 °F /  13.1 °C 53.6 °F /  12 °C 29.7in /  1006.8hPa West 2.9mph /  4.7km/h 7mph /  11.3km/h 93% 0.09in /  2.3mm 53 W/m2
17:58 55.4 °F /  13 °C 53.1 °F /  11.7 °C 29.7in /  1006.8hPa WSW 4.9mph /  7.9km/h 10mph /  16.1km/h 92% 0.09in /  2.3mm 35 W/m2
18:03 55.2 °F /  12.9 °C 52.7 °F /  11.5 °C 29.7in /  1007.1hPa WSW 4mph /  6.4km/h 8mph /  12.9km/h 91% 0.09in /  2.3mm 86 W/m2
18:08 55.2 °F /  12.9 °C 52.3 °F /  11.3 °C 29.8in /  1007.5hPa WSW 4mph /  6.4km/h 9mph /  14.5km/h 90% 0.08in /  2.0mm 77 W/m2
18:13 55 °F /  12.8 °C 52.2 °F /  11.2 °C 29.8in /  1007.5hPa WSW 4.9mph /  7.9km/h 5mph /  8km/h 90% 0.06in /  1.5mm 39 W/m2
18:18 54.9 °F /  12.7 °C 52 °F /  11.1 °C 29.8in /  1007.5hPa WNW 4mph /  6.4km/h 9mph /  14.5km/h 90% 0.06in /  1.5mm 21 W/m2
18:23 54.7 °F /  12.6 °C 51.8 °F /  11 °C 29.8in /  1007.5hPa WSW 2.9mph /  4.7km/h 8mph /  12.9km/h 90% 0.05in /  1.3mm 21 W/m2
18:28 54.3 °F /  12.4 °C 51.8 °F /  11 °C 29.8in /  1007.5hPa West 2.9mph /  4.7km/h 6mph /  9.7km/h 91% 0.04in /  1.0mm 14 W/m2
18:33 54.1 °F /  12.3 °C 51.6 °F /  10.9 °C 29.8in /  1007.8hPa WNW 4mph /  6.4km/h 6mph /  9.7km/h 91% 0.03in /  0.8mm 11 W/m2
18:38 54.1 °F /  12.3 °C 51.6 °F /  10.9 °C 29.8in /  1007.8hPa NW 8.1mph /  13km/h 11mph /  17.7km/h 91% 0.02in /  0.5mm 9 W/m2
18:43 54 °F /  12.2 °C 51.4 °F /  10.8 °C 29.8in /  1008.1hPa West 2mph /  3.2km/h 5mph /  8km/h 91% 0.01in /  0.2mm 9 W/m2
18:48 54 °F /  12.2 °C 51.4 °F /  10.8 °C 29.8in /  1008.1hPa West 2.9mph /  4.7km/h 11mph /  17.7km/h 91% 0.01in /  0.2mm 7 W/m2
18:53 53.8 °F /  12.1 °C 51.3 °F /  10.7 °C 29.8in /  1008.1hPa West 2.9mph /  4.7km/h 6mph /  9.7km/h 91% 0.01in /  0.2mm 7 W/m2
18:58 53.8 °F /  12.1 °C 51.3 °F /  10.7 °C 29.8in /  1008.1hPa NW 2mph /  3.2km/h 5mph /  8km/h 91% 0.01in /  0.2mm 5 W/m2
19:03 53.8 °F /  12.1 °C 51.3 °F /  10.7 °C 29.8in /  1008.5hPa West 0.9mph /  1.4km/h 4mph /  6.4km/h 91% 0in /  0.0mm 0 W/m2
19:08 53.8 °F /  12.1 °C 51.4 °F /  10.8 °C 29.8in /  1008.5hPa Calm   3mph /  4.8km/h 92% 0in /  0.0mm 0 W/m2
19:13 53.6 °F /  12 °C 51.3 °F /  10.7 °C 29.8in /  1008.5hPa Calm   4mph /  6.4km/h 92% 0in /  0.0mm 0 W/m2
19:18 53.6 °F /  12 °C 51.3 °F /  10.7 °C 29.8in /  1008.5hPa West 2mph /  3.2km/h 4mph /  6.4km/h 92% 0in /  0.0mm 0 W/m2
19:23 53.6 °F /  12 °C 51.3 °F /  10.7 °C 29.8in /  1008.5hPa North 0.9mph /  1.4km/h 9mph /  14.5km/h 92% 0in /  0.0mm 0 W/m2
19:28 53.4 °F /  11.9 °C 51.1 °F /  10.6 °C 29.8in /  1008.8hPa West 8.1mph /  13km/h 8mph /  12.9km/h 92% 0in /  0.0mm 0 W/m2
19:33 53.2 °F /  11.8 °C 50.7 °F /  10.4 °C 29.8in /  1008.8hPa NNW 0.9mph /  1.4km/h 5mph /  8km/h 91% 0in /  0.0mm 0 W/m2
19:38 53.2 °F /  11.8 °C 50.7 °F /  10.4 °C 29.8in /  1008.8hPa NNE 0.9mph /  1.4km/h 2mph /  3.2km/h 91% 0in /  0.0mm 0 W/m2
19:43 53.1 °F /  11.7 °C 50.5 °F /  10.3 °C 29.8in /  1008.8hPa NNW 2.9mph /  4.7km/h 5mph /  8km/h 91% 0in /  0.0mm 0 W/m2
19:48 53.1 °F /  11.7 °C 50.2 °F /  10.1 °C 29.8in /  1009.1hPa SW 2mph /  3.2km/h 5mph /  8km/h 90% 0in /  0.0mm 0 W/m2
19:53 53.1 °F /  11.7 °C 50.2 °F /  10.1 °C 29.8in /  1009.1hPa Calm   3mph /  4.8km/h 90% 0in /  0.0mm 0 W/m2
19:58 53.1 °F /  11.7 °C 50.2 °F /  10.1 °C 29.8in /  1009.1hPa SE 2mph /  3.2km/h 5mph /  8km/h 90% 0in /  0.0mm 0 W/m2
20:03 53.1 °F /  11.7 °C 50.2 °F /  10.1 °C 29.8in /  1009.1hPa NNW 2mph /  3.2km/h 3mph /  4.8km/h 90% 0in /  0.0mm 0 W/m2
20:08 53.1 °F /  11.7 °C 50.2 °F /  10.1 °C 29.8in /  1009.5hPa NW 2.9mph /  4.7km/h 3mph /  4.8km/h 90% 0in /  0.0mm 0 W/m2
20:13 52.9 °F /  11.6 °C 50 °F /  10 °C 29.8in /  1009.5hPa WNW 2mph /  3.2km/h 3mph /  4.8km/h 90% 0in /  0.0mm 0 W/m2
20:18 52.5 °F /  11.4 °C 49.6 °F /  9.8 °C 29.8in /  1009.5hPa WSW 4.9mph /  7.9km/h 8mph /  12.9km/h 90% 0in /  0.0mm 0 W/m2
20:23 52.3 °F /  11.3 °C 49.5 °F /  9.7 °C 29.8in /  1009.5hPa NW 4.9mph /  7.9km/h 5mph /  8km/h 90% 0in /  0.0mm 0 W/m2
20:28 52.2 °F /  11.2 °C 49.3 °F /  9.6 °C 29.8in /  1009.8hPa West 2.9mph /  4.7km/h 8mph /  12.9km/h 90% 0in /  0.0mm 0 W/m2
20:33 52 °F /  11.1 °C 48.9 °F /  9.4 °C 29.8in /  1009.8hPa WSW 8.1mph /  13km/h 8mph /  12.9km/h 89% 0in /  0.0mm 0 W/m2
20:38 52.2 °F /  11.2 °C 49.1 °F /  9.5 °C 29.8in /  1009.8hPa West 2.9mph /  4.7km/h 8mph /  12.9km/h 89% 0in /  0.0mm 0 W/m2
20:43 52.2 °F /  11.2 °C 49.1 °F /  9.5 °C 29.8in /  1009.8hPa West 2mph /  3.2km/h 3mph /  4.8km/h 89% 0in /  0.0mm 0 W/m2
20:48 52 °F /  11.1 °C 48.9 °F /  9.4 °C 29.8in /  1010.2hPa NW 2mph /  3.2km/h 4mph /  6.4km/h 89% 0in /  0.0mm 0 W/m2
20:53 52 °F /  11.1 °C 48.9 °F /  9.4 °C 29.8in /  1010.2hPa NNW 4mph /  6.4km/h 4mph /  6.4km/h 89% 0in /  0.0mm 0 W/m2
20:58 51.8 °F /  11 °C 48.9 °F /  9.4 °C 29.8in /  1010.2hPa Calm   3mph /  4.8km/h 90% 0in /  0.0mm 0 W/m2
21:03 51.8 °F /  11 °C 48.9 °F /  9.4 °C 29.8in /  1010.5hPa Calm   1mph /  1.6km/h 90% 0in /  0.0mm 0 W/m2
21:08 51.6 °F /  10.9 °C 48.7 °F /  9.3 °C 29.9in /  1010.8hPa WNW 0.9mph /  1.4km/h 3mph /  4.8km/h 90% 0in /  0.0mm 0 W/m2
21:13 51.8 °F /  11 °C 49.3 °F /  9.6 °C 29.9in /  1010.8hPa WNW 0.9mph /  1.4km/h 4mph /  6.4km/h 91% 0in /  0.0mm 0 W/m2
21:18 51.6 °F /  10.9 °C 48.7 °F /  9.3 °C 29.9in /  1010.8hPa NW 2.9mph /  4.7km/h 9mph /  14.5km/h 90% 0.01in /  0.2mm 0 W/m2
21:23 51.4 °F /  10.8 °C 48.9 °F /  9.4 °C 29.9in /  1010.8hPa WNW 2.9mph /  4.7km/h 3mph /  4.8km/h 91% 0.02in /  0.5mm 0 W/m2
21:28 51.4 °F /  10.8 °C 48.9 °F /  9.4 °C 29.8in /  1010.5hPa Calm   4mph /  6.4km/h 91% 0.02in /  0.5mm 0 W/m2
21:33 51.3 °F /  10.7 °C 48.7 °F /  9.3 °C 29.9in /  1010.8hPa Calm   2mph /  3.2km/h 91% 0.02in /  0.5mm 0 W/m2
21:38 51.3 °F /  10.7 °C 48.7 °F /  9.3 °C 29.9in /  1010.8hPa NW 2.9mph /  4.7km/h 5mph /  8km/h 91% 0.02in /  0.5mm 0 W/m2
21:43 51.1 °F /  10.6 °C 48.6 °F /  9.2 °C 29.9in /  1010.8hPa West 0.9mph /  1.4km/h 2mph /  3.2km/h 91% 0.02in /  0.5mm 0 W/m2
21:48 50.9 °F /  10.5 °C 48.4 °F /  9.1 °C 29.9in /  1010.8hPa Calm   3mph /  4.8km/h 91% 0.02in /  0.5mm 0 W/m2
21:53 50.7 °F /  10.4 °C 48.2 °F /  9 °C 29.9in /  1010.8hPa South 0.9mph /  1.4km/h 2mph /  3.2km/h 91% 0.02in /  0.5mm 0 W/m2
21:58 50.7 °F /  10.4 °C 48.2 °F /  9 °C 29.9in /  1010.8hPa West 2mph /  3.2km/h 4mph /  6.4km/h 91% 0.02in /  0.5mm 0 W/m2
22:03 50.7 °F /  10.4 °C 48.2 °F /  9 °C 29.9in /  1010.8hPa NW 0.9mph /  1.4km/h 4mph /  6.4km/h 91% 0.02in /  0.5mm 0 W/m2
22:08 50.7 °F /  10.4 °C 48.2 °F /  9 °C 29.9in /  1010.8hPa ENE 0.9mph /  1.4km/h 5mph /  8km/h 91% 0.02in /  0.5mm 0 W/m2
22:13 50.7 °F /  10.4 °C 48.6 °F /  9.2 °C 29.9in /  1011.2hPa Calm   1mph /  1.6km/h 92% 0.02in /  0.5mm 0 W/m2
22:18 50.5 °F /  10.3 °C 48 °F /  8.9 °C 29.9in /  1011.2hPa NNW 2mph /  3.2km/h 5mph /  8km/h 91% 0.02in /  0.5mm 0 W/m2
22:23 50.4 °F /  10.2 °C 48.2 °F /  9 °C 29.9in /  1011.2hPa WNW 2mph /  3.2km/h 2mph /  3.2km/h 92% 0in /  0.0mm 0 W/m2
22:28 50.4 °F /  10.2 °C 48.2 °F /  9 °C 29.9in /  1011.2hPa NE 0.9mph /  1.4km/h 3mph /  4.8km/h 92% 0in /  0.0mm 0 W/m2
22:33 50.4 °F /  10.2 °C 48.2 °F /  9 °C 29.9in /  1011.5hPa NNE 0.9mph /  1.4km/h 2mph /  3.2km/h 92% 0in /  0.0mm 0 W/m2
22:38 50.2 °F /  10.1 °C 48 °F /  8.9 °C 29.9in /  1011.5hPa Calm   1mph /  1.6km/h 92% 0in /  0.0mm 0 W/m2
22:43 50.2 °F /  10.1 °C 48.2 °F /  9 °C 29.9in /  1011.5hPa NNW 0.9mph /  1.4km/h 2mph /  3.2km/h 93% 0in /  0.0mm 0 W/m2
22:48 50.2 °F /  10.1 °C 48.2 °F /  9 °C 29.9in /  1011.5hPa WNW 2.9mph /  4.7km/h 5mph /  8km/h 93% 0in /  0.0mm 0 W/m2
22:53 50.4 °F /  10.2 °C 48.4 °F /  9.1 °C 29.9in /  1011.5hPa North 0.9mph /  1.4km/h 3mph /  4.8km/h 93% 0in /  0.0mm 0 W/m2
22:58 50.4 °F /  10.2 °C 48.4 °F /  9.1 °C 29.9in /  1011.9hPa North 0.9mph /  1.4km/h 5mph /  8km/h 93% 0in /  0.0mm 0 W/m2
23:03 50.4 °F /  10.2 °C 48.4 °F /  9.1 °C 29.9in /  1011.9hPa Calm   1mph /  1.6km/h 93% 0in /  0.0mm 0 W/m2
23:08 50.4 °F /  10.2 °C 48.7 °F /  9.3 °C 29.9in /  1011.9hPa Calm   2mph /  3.2km/h 94% 0in /  0.0mm 0 W/m2
23:13 50.4 °F /  10.2 °C 48.7 °F /  9.3 °C 29.9in /  1011.9hPa Calm   1mph /  1.6km/h 94% 0in /  0.0mm 0 W/m2
23:18 50.4 °F /  10.2 °C 48.7 °F /  9.3 °C 29.9in /  1011.9hPa Calm   1mph /  1.6km/h 94% 0in /  0.0mm 0 W/m2
23:23 50.4 °F /  10.2 °C 48.7 °F /  9.3 °C 29.9in /  1011.9hPa Calm   3mph /  4.8km/h 94% 0in /  0.0mm 0 W/m2
23:28 50.5 °F /  10.3 °C 48.9 °F /  9.4 °C 29.9in /  1012.2hPa SSW 2mph /  3.2km/h 3mph /  4.8km/h 94% 0in /  0.0mm 0 W/m2
23:33 50.5 °F /  10.3 °C 48.9 °F /  9.4 °C 29.9in /  1012.2hPa Calm   3mph /  4.8km/h 94% 0in /  0.0mm 0 W/m2
23:38 50.7 °F /  10.4 °C 49.1 °F /  9.5 °C 29.9in /  1012.2hPa Calm   2mph /  3.2km/h 94% 0.01in /  0.2mm 0 W/m2
23:44 50.7 °F /  10.4 °C 49.1 °F /  9.5 °C 29.9in /  1012.2hPa East 0.9mph /  1.4km/h 2mph /  3.2km/h 94% 0.01in /  0.2mm 0 W/m2
23:49 50.9 °F /  10.5 °C 49.3 °F /  9.6 °C 29.9in /  1012.2hPa East 4.9mph /  7.9km/h 5mph /  8km/h 94% 0.01in /  0.2mm 0 W/m2
23:54 50.9 °F /  10.5 °C 49.3 °F /  9.6 °C 29.9in /  1012.5hPa SSW 0.9mph /  1.4km/h 2mph /  3.2km/h 94% 0.01in /  0.2mm 0 W/m2
23:59 51.1 °F /  10.6 °C 49.5 °F /  9.7 °C 29.9in /  1012.5hPa SW 0.9mph /  1.4km/h 1mph /  1.6km/h 94% 0.01in /  0.2mm 0 W/m2
Juneau County Weather
Compliments of Weather Underground - 4 mb